createdAt,value
2018-03-09T00:00:49.649Z,3.60
2018-03-09T00:01:56.257Z,3.30
2018-03-09T00:03:00.686Z,3.50
2018-03-09T00:04:06.177Z,3.90
2018-03-09T00:05:12.690Z,3.70
2018-03-09T00:06:17.191Z,3.90
2018-03-09T00:07:23.746Z,4.20
2018-03-09T00:08:28.233Z,4.10
2018-03-09T00:09:33.725Z,3.50
2018-03-09T00:10:40.235Z,3.90
2018-03-09T00:11:44.730Z,3.90
2018-03-09T00:12:51.258Z,4.20
2018-03-09T00:13:55.738Z,4.80
2018-03-09T00:15:01.250Z,4.80
2018-03-09T00:16:07.784Z,4.80
2018-03-09T00:17:12.296Z,5.10
2018-03-09T00:18:18.819Z,4.60
2018-03-09T00:19:23.281Z,4.90
2018-03-09T00:20:28.796Z,4.40
2018-03-09T00:21:35.307Z,4.90
2018-03-09T00:22:39.809Z,4.60
2018-03-09T00:23:46.345Z,4.80
2018-03-09T00:24:50.829Z,4.20
2018-03-09T00:25:56.339Z,4.40
2018-03-09T00:27:02.852Z,4.50
2018-03-09T00:28:07.373Z,4.10
2018-03-09T00:29:13.875Z,4.20
2018-03-09T00:30:18.366Z,3.70
2018-03-09T00:31:23.870Z,3.80
2018-03-09T00:32:30.395Z,3.60
2018-03-09T00:33:34.878Z,3.60
2018-03-09T00:34:41.415Z,4.30
2018-03-09T00:35:45.901Z,3.80
2018-03-09T00:36:51.437Z,3.80
2018-03-09T00:37:57.996Z,3.60
2018-03-09T00:39:02.436Z,3.50
2018-03-09T00:40:08.958Z,4.10
2018-03-09T00:41:13.453Z,3.60
2018-03-09T00:42:18.970Z,3.70
2018-03-09T00:43:25.476Z,3.50
2018-03-09T00:44:29.959Z,3.70
2018-03-09T00:45:36.483Z,3.70
2018-03-09T00:46:40.982Z,3.50
2018-03-09T00:47:46.490Z,4.00
2018-03-09T00:48:53.044Z,3.50
2018-03-09T00:49:57.508Z,3.70
2018-03-09T00:51:04.019Z,3.70
2018-03-09T00:52:08.517Z,3.50
2018-03-09T00:53:14.034Z,4.10
2018-03-09T00:54:20.556Z,3.50
2018-03-09T00:55:25.046Z,3.90
2018-03-09T00:56:31.568Z,3.90
2018-03-09T00:57:36.081Z,4.10
2018-03-09T00:58:41.600Z,3.60
2018-03-09T00:59:48.083Z,3.80
2018-03-09T01:00:52.588Z,3.70
2018-03-09T01:01:59.100Z,4.20
2018-03-09T01:03:03.598Z,3.70
2018-03-09T01:04:09.095Z,4.20
2018-03-09T01:05:15.618Z,4.00
2018-03-09T01:06:20.141Z,4.10
2018-03-09T01:07:26.635Z,4.00
2018-03-09T01:08:31.131Z,4.10
2018-03-09T01:09:36.667Z,3.90
2018-03-09T01:10:43.166Z,4.10
2018-03-09T01:11:47.669Z,3.50
2018-03-09T01:12:54.172Z,3.80
2018-03-09T01:13:58.679Z,3.50
2018-03-09T01:15:04.207Z,3.40
2018-03-09T01:16:10.707Z,4.00
2018-03-09T01:17:15.206Z,3.40
2018-03-09T01:18:21.712Z,3.50
2018-03-09T01:19:26.216Z,3.30
2018-03-09T01:20:31.737Z,3.60
2018-03-09T01:21:38.238Z,3.50
2018-03-09T01:22:42.744Z,3.80
2018-03-09T01:23:49.259Z,3.20
2018-03-09T01:24:53.752Z,3.40
2018-03-09T01:25:59.280Z,3.70
2018-03-09T01:27:05.787Z,3.30
2018-03-09T01:28:10.288Z,3.40
2018-03-09T01:29:16.811Z,3.20
2018-03-09T01:30:21.294Z,3.70
2018-03-09T01:31:26.797Z,3.40
2018-03-09T01:32:33.324Z,3.60
2018-03-09T01:33:37.820Z,3.50
2018-03-09T01:34:44.338Z,3.80
2018-03-09T01:35:48.846Z,3.60
2018-03-09T01:36:54.336Z,3.60
2018-03-09T01:38:00.865Z,3.90
2018-03-09T01:39:05.364Z,3.80
2018-03-09T01:40:11.881Z,3.80
2018-03-09T01:41:16.405Z,4.10
2018-03-09T01:42:21.886Z,3.90
2018-03-09T01:43:28.395Z,3.50
2018-03-09T01:44:32.889Z,4.00
2018-03-09T01:45:39.409Z,3.70
2018-03-09T01:46:43.916Z,4.20
2018-03-09T01:47:49.421Z,3.90
2018-03-09T01:48:55.969Z,3.90
2018-03-09T01:50:00.451Z,3.60
2018-03-09T01:51:06.954Z,4.00
2018-03-09T01:52:11.455Z,4.70
2018-03-09T01:53:16.969Z,4.10
2018-03-09T01:54:23.537Z,4.10
2018-03-09T01:55:28.060Z,4.30
2018-03-09T01:56:34.495Z,4.20
2018-03-09T01:57:38.983Z,4.00
2018-03-09T01:58:44.515Z,3.90
2018-03-09T01:59:51.037Z,4.30
2018-03-09T02:00:55.517Z,3.90
2018-03-09T02:02:02.031Z,3.90
2018-03-09T02:03:06.551Z,4.00
2018-03-09T02:04:12.037Z,4.20
2018-03-09T02:05:18.561Z,4.30
2018-03-09T02:06:23.053Z,4.60
2018-03-09T02:07:29.594Z,4.40
2018-03-09T02:08:34.067Z,5.00
2018-03-09T02:09:39.573Z,4.10
2018-03-09T02:10:46.091Z,4.40
2018-03-09T02:11:50.592Z,4.10
2018-03-09T02:12:57.115Z,3.60
2018-03-09T02:14:01.620Z,4.20
2018-03-09T02:15:07.117Z,4.50
2018-03-09T02:16:13.628Z,4.30
2018-03-09T02:17:18.129Z,4.20
2018-03-09T02:18:24.644Z,4.20
2018-03-09T02:19:29.136Z,4.40
2018-03-09T02:20:34.643Z,4.00
2018-03-09T02:21:41.176Z,4.20
2018-03-09T02:22:45.668Z,4.20
2018-03-09T02:23:52.176Z,4.50
2018-03-09T02:24:56.687Z,4.70
2018-03-09T02:26:02.194Z,4.00
2018-03-09T02:27:08.712Z,4.20
2018-03-09T02:28:13.201Z,4.50
2018-03-09T02:29:19.723Z,3.90
2018-03-09T02:30:24.227Z,4.00
2018-03-09T02:31:29.731Z,4.10
2018-03-09T02:32:36.258Z,4.10
2018-03-09T02:33:40.742Z,4.70
2018-03-09T02:34:47.255Z,4.10
2018-03-09T02:35:51.761Z,4.10
2018-03-09T02:36:57.267Z,4.30
2018-03-09T02:38:03.973Z,3.90
2018-03-09T02:39:08.276Z,4.10
2018-03-09T02:40:14.831Z,4.10
2018-03-09T02:41:19.314Z,4.10
2018-03-09T02:42:24.803Z,4.10
2018-03-09T02:43:31.322Z,3.90
2018-03-09T02:44:35.818Z,4.40
2018-03-09T02:45:42.342Z,4.00
2018-03-09T02:46:46.832Z,4.20
2018-03-09T02:47:52.348Z,4.10
2018-03-09T02:48:58.853Z,4.00
2018-03-09T02:50:03.363Z,4.00
2018-03-09T02:51:09.872Z,3.90
2018-03-09T02:52:14.370Z,4.10
2018-03-09T02:53:19.871Z,4.10
2018-03-09T02:54:26.408Z,4.10
2018-03-09T02:55:30.890Z,4.10
2018-03-09T02:56:37.406Z,4.00
2018-03-09T02:57:41.914Z,4.10
2018-03-09T02:58:47.430Z,4.70
2018-03-09T02:59:53.957Z,3.90
2018-03-09T03:00:58.436Z,4.30
2018-03-09T03:02:04.954Z,3.80
2018-03-09T03:03:09.452Z,4.20
2018-03-09T03:04:15.005Z,3.90
2018-03-09T03:05:21.482Z,4.10
2018-03-09T03:06:26.060Z,4.30
2018-03-09T03:07:32.485Z,4.10
2018-03-09T03:08:36.992Z,4.00
2018-03-09T03:09:42.496Z,4.10
2018-03-09T03:10:49.013Z,3.90
2018-03-09T03:11:53.516Z,3.80
2018-03-09T03:13:00.029Z,3.80
2018-03-09T03:14:04.519Z,4.00
2018-03-09T03:15:10.038Z,4.20
2018-03-09T03:16:16.558Z,4.00
2018-03-09T03:17:21.133Z,4.20
2018-03-09T03:18:27.570Z,4.10
2018-03-09T03:19:32.070Z,4.20
2018-03-09T03:20:37.581Z,4.30
2018-03-09T03:21:44.097Z,3.80
2018-03-09T03:22:48.595Z,4.10
2018-03-09T03:23:55.095Z,3.80
2018-03-09T03:24:59.619Z,4.10
2018-03-09T03:26:05.126Z,4.40
2018-03-09T03:27:11.657Z,4.40
2018-03-09T03:28:16.135Z,4.70
2018-03-09T03:29:22.653Z,4.40
2018-03-09T03:30:27.142Z,4.10
2018-03-09T03:31:32.652Z,4.20
2018-03-09T03:32:39.170Z,4.50
2018-03-09T03:33:43.667Z,4.20
2018-03-09T03:34:50.175Z,4.40
2018-03-09T03:35:54.677Z,4.20
2018-03-09T03:37:00.197Z,3.90
2018-03-09T03:38:06.713Z,4.30
2018-03-09T03:39:11.207Z,4.30
2018-03-09T03:40:17.721Z,4.20
2018-03-09T03:41:22.224Z,4.40
2018-03-09T03:42:27.725Z,4.30
2018-03-09T03:43:34.253Z,4.60
2018-03-09T03:44:38.756Z,4.40
2018-03-09T03:45:45.259Z,4.90
2018-03-09T03:46:49.760Z,4.20
2018-03-09T03:47:55.268Z,4.90
2018-03-09T03:49:01.796Z,5.00
2018-03-09T03:50:06.286Z,4.90
2018-03-09T03:51:12.804Z,5.00
2018-03-09T03:52:17.300Z,4.40
2018-03-09T03:53:22.808Z,4.60
2018-03-09T03:54:29.329Z,4.40
2018-03-09T03:55:33.820Z,4.30
2018-03-09T03:56:40.341Z,4.60
2018-03-09T03:57:44.850Z,4.50
2018-03-09T03:58:50.406Z,4.60
2018-03-09T03:59:56.902Z,4.60
2018-03-09T04:01:01.374Z,4.50
2018-03-09T04:02:07.876Z,4.70
2018-03-09T04:03:12.385Z,5.20
2018-03-09T04:04:17.881Z,4.30
2018-03-09T04:05:24.403Z,4.70
2018-03-09T04:06:28.901Z,4.80
2018-03-09T04:07:35.423Z,4.40
2018-03-09T04:08:40.247Z,4.90
2018-03-09T04:09:45.447Z,5.10
2018-03-09T04:10:51.942Z,4.30
2018-03-09T04:11:56.438Z,4.80
2018-03-09T04:13:02.958Z,4.30
2018-03-09T04:14:07.470Z,4.10
2018-03-09T04:15:12.990Z,4.80
2018-03-09T04:16:19.483Z,4.60
2018-03-09T04:17:23.983Z,4.70
2018-03-09T04:18:30.502Z,4.90
2018-03-09T04:19:34.995Z,4.90
2018-03-09T04:20:40.504Z,4.90
2018-03-09T04:21:47.024Z,4.50
2018-03-09T04:22:51.519Z,4.70
2018-03-09T04:23:58.032Z,4.90
2018-03-09T04:25:02.536Z,4.80
2018-03-09T04:26:08.045Z,4.90
2018-03-09T04:27:14.563Z,5.10
2018-03-09T04:28:19.056Z,4.80
2018-03-09T04:29:25.582Z,4.40
2018-03-09T04:30:30.125Z,4.50
2018-03-09T04:31:35.595Z,4.40
2018-03-09T04:32:42.104Z,4.70
2018-03-09T04:33:46.633Z,4.80
2018-03-09T04:34:53.123Z,4.90
2018-03-09T04:35:57.615Z,5.10
2018-03-09T04:37:03.116Z,5.10
2018-03-09T04:38:09.656Z,5.20
2018-03-09T04:39:14.140Z,4.50
2018-03-09T04:40:20.656Z,5.00
2018-03-09T04:41:25.150Z,4.80
2018-03-09T04:42:30.664Z,4.90
2018-03-09T04:43:37.179Z,5.00
2018-03-09T04:44:41.674Z,5.10
2018-03-09T04:45:48.188Z,5.40
2018-03-09T04:46:52.688Z,5.20
2018-03-09T04:47:58.199Z,4.90
2018-03-09T04:49:04.720Z,4.60
2018-03-09T04:50:09.212Z,5.30
2018-03-09T04:51:15.743Z,4.90
2018-03-09T04:52:20.244Z,5.30
2018-03-09T04:53:25.747Z,5.30
2018-03-09T04:54:32.390Z,4.60
2018-03-09T04:55:36.773Z,4.40
2018-03-09T04:56:43.363Z,4.80
2018-03-09T04:57:47.775Z,4.90
2018-03-09T04:58:53.365Z,4.50
2018-03-09T04:59:59.796Z,4.90
2018-03-09T05:01:04.287Z,4.70
2018-03-09T05:02:10.826Z,4.80
2018-03-09T05:03:15.310Z,5.20
2018-03-09T05:04:20.825Z,4.80
2018-03-09T05:05:27.342Z,4.60
2018-03-09T05:06:31.837Z,5.00
2018-03-09T05:07:38.351Z,5.10
2018-03-09T05:08:42.838Z,4.80
2018-03-09T05:09:48.360Z,5.10
2018-03-09T05:10:54.872Z,4.90
2018-03-09T05:11:59.378Z,4.80
2018-03-09T05:13:05.905Z,5.10
2018-03-09T05:14:10.390Z,4.60
2018-03-09T05:15:15.886Z,5.30
2018-03-09T05:16:22.418Z,4.40
2018-03-09T05:17:26.910Z,5.20
2018-03-09T05:18:33.438Z,4.90
2018-03-09T05:19:37.917Z,4.80
2018-03-09T05:20:43.458Z,5.30
2018-03-09T05:21:49.945Z,5.20
2018-03-09T05:22:54.444Z,5.30
2018-03-09T05:24:00.971Z,5.50
2018-03-09T05:25:05.477Z,5.30
2018-03-09T05:26:10.967Z,5.30
2018-03-09T05:27:17.487Z,5.40
2018-03-09T05:28:21.994Z,5.30
2018-03-09T05:29:28.502Z,5.00
2018-03-09T05:30:32.998Z,5.80
2018-03-09T05:31:38.535Z,5.40
2018-03-09T05:32:45.024Z,5.80
2018-03-09T05:33:49.536Z,5.60
2018-03-09T05:34:56.044Z,5.60
2018-03-09T05:36:00.559Z,5.60
2018-03-09T05:37:06.040Z,5.60
2018-03-09T05:38:12.556Z,5.60
2018-03-09T05:39:17.068Z,5.90
2018-03-09T05:40:23.586Z,5.50
2018-03-09T05:41:28.103Z,5.80
2018-03-09T05:42:33.613Z,5.80
2018-03-09T05:43:40.108Z,5.70
2018-03-09T05:44:44.597Z,6.30
2018-03-09T05:45:51.217Z,5.50
2018-03-09T05:46:55.612Z,5.60
2018-03-09T05:48:01.126Z,5.80
2018-03-09T05:49:07.640Z,6.90
2018-03-09T05:50:12.137Z,7.30
2018-03-09T05:51:18.665Z,5.60
2018-03-09T05:52:23.227Z,6.20
2018-03-09T05:53:28.680Z,6.00
2018-03-09T05:54:35.177Z,5.60
2018-03-09T05:55:39.682Z,6.00
2018-03-09T05:56:46.200Z,5.50
2018-03-09T05:57:50.699Z,5.70
2018-03-09T05:58:56.198Z,5.50
2018-03-09T06:00:02.733Z,5.60
2018-03-09T06:01:07.215Z,5.50
2018-03-09T06:02:13.751Z,5.40
2018-03-09T06:03:18.227Z,5.90
2018-03-09T06:04:23.747Z,5.90
2018-03-09T06:05:30.263Z,5.20
2018-03-09T06:06:34.771Z,5.10
2018-03-09T06:07:41.275Z,5.50
2018-03-09T06:08:45.773Z,5.50
2018-03-09T06:09:51.290Z,5.20
2018-03-09T06:10:57.805Z,5.20
2018-03-09T06:12:02.296Z,5.10
2018-03-09T06:13:08.824Z,5.50
2018-03-09T06:14:13.306Z,6.00
2018-03-09T06:15:18.827Z,5.40
2018-03-09T06:16:25.343Z,5.80
2018-03-09T06:17:29.832Z,5.40
2018-03-09T06:18:36.368Z,5.80
2018-03-09T06:19:40.851Z,5.50
2018-03-09T06:20:46.410Z,5.40
2018-03-09T06:21:52.882Z,5.90
2018-03-09T06:22:57.368Z,5.70
2018-03-09T06:24:03.898Z,5.60
2018-03-09T06:25:08.393Z,5.40
2018-03-09T06:26:13.914Z,5.70
2018-03-09T06:27:20.430Z,6.00
2018-03-09T06:28:24.910Z,5.70
2018-03-09T06:29:31.428Z,5.40
2018-03-09T06:30:35.933Z,5.90
2018-03-09T06:31:41.446Z,5.90
2018-03-09T06:32:47.950Z,5.40
2018-03-09T06:33:52.452Z,5.90
2018-03-09T06:34:58.992Z,6.30
2018-03-09T06:36:03.483Z,5.60
2018-03-09T06:37:08.982Z,6.20
2018-03-09T06:38:15.490Z,5.70
2018-03-09T06:39:19.990Z,5.70
2018-03-09T06:40:26.513Z,5.90
2018-03-09T06:41:31.006Z,5.90
2018-03-09T06:42:36.514Z,5.40
2018-03-09T06:43:43.038Z,5.60
2018-03-09T06:44:47.581Z,5.60
2018-03-09T06:45:54.067Z,5.40
2018-03-09T06:46:58.550Z,5.60
2018-03-09T06:48:04.051Z,5.50
2018-03-09T06:49:10.578Z,5.80
2018-03-09T06:50:15.080Z,5.60
2018-03-09T06:51:21.599Z,5.30
2018-03-09T06:52:26.118Z,6.00
2018-03-09T06:53:31.609Z,5.60
2018-03-09T06:54:38.119Z,5.70
2018-03-09T06:55:42.617Z,5.60
2018-03-09T06:56:49.129Z,5.50
2018-03-09T06:57:53.629Z,5.50
2018-03-09T06:58:59.148Z,5.40
2018-03-09T07:00:05.661Z,6.00
2018-03-09T07:01:10.159Z,5.20
2018-03-09T07:02:16.678Z,5.80
2018-03-09T07:03:21.183Z,5.30
2018-03-09T07:04:26.697Z,5.50
2018-03-09T07:05:33.202Z,6.00
2018-03-09T07:06:37.708Z,5.40
2018-03-09T07:07:44.224Z,5.90
2018-03-09T07:08:48.717Z,5.70
2018-03-09T07:09:54.231Z,5.60
2018-03-09T07:11:00.758Z,5.60
2018-03-09T07:12:05.239Z,5.50
2018-03-09T07:13:11.755Z,5.80
2018-03-09T07:14:16.267Z,5.80
2018-03-09T07:15:21.761Z,5.40
2018-03-09T07:16:28.325Z,5.40
2018-03-09T07:17:32.778Z,5.80
2018-03-09T07:18:39.300Z,5.60
2018-03-09T07:19:43.805Z,5.70
2018-03-09T07:20:49.308Z,5.90
2018-03-09T07:21:55.824Z,5.80
2018-03-09T07:23:00.327Z,5.60
2018-03-09T07:24:06.845Z,5.80
2018-03-09T07:25:11.332Z,5.80
2018-03-09T07:26:16.846Z,5.90
2018-03-09T07:27:23.374Z,5.30
2018-03-09T07:28:27.871Z,6.00
2018-03-09T07:29:34.391Z,5.70
2018-03-09T07:30:38.875Z,5.50
2018-03-09T07:31:44.400Z,5.90
2018-03-09T07:32:50.919Z,6.30
2018-03-09T07:33:55.414Z,5.60
2018-03-09T07:35:01.940Z,5.70
2018-03-09T07:36:06.431Z,5.80
2018-03-09T07:37:11.925Z,5.90
2018-03-09T07:38:18.456Z,5.90
2018-03-09T07:39:22.944Z,6.10
2018-03-09T07:40:29.482Z,5.80
2018-03-09T07:41:33.971Z,6.00
2018-03-09T07:42:39.487Z,6.40
2018-03-09T07:43:45.990Z,5.80
2018-03-09T07:44:50.491Z,6.10
2018-03-09T07:45:57.022Z,5.70
2018-03-09T07:47:01.519Z,6.10
2018-03-09T07:48:07.019Z,6.10
2018-03-09T07:49:13.582Z,6.20
2018-03-09T07:50:18.034Z,6.00
2018-03-09T07:51:24.553Z,5.80
2018-03-09T07:52:29.052Z,5.90
2018-03-09T07:53:34.568Z,5.60
2018-03-09T07:54:41.083Z,6.10
2018-03-09T07:55:45.579Z,5.90
2018-03-09T07:56:52.103Z,6.10
2018-03-09T07:57:56.606Z,5.80
2018-03-09T07:59:02.124Z,5.80
2018-03-09T08:00:08.623Z,6.30
2018-03-09T08:01:13.127Z,5.90
2018-03-09T08:02:19.660Z,6.10
2018-03-09T08:03:24.146Z,5.90
2018-03-09T08:04:29.670Z,6.00
2018-03-09T08:05:36.265Z,6.10
2018-03-09T08:06:40.669Z,6.30
2018-03-09T08:07:47.211Z,6.10
2018-03-09T08:08:51.694Z,6.00
2018-03-09T08:09:57.208Z,6.10
2018-03-09T08:11:03.717Z,6.40
2018-03-09T08:12:08.212Z,6.00
2018-03-09T08:13:14.739Z,6.20
2018-03-09T08:14:19.234Z,5.90
2018-03-09T08:15:24.759Z,6.30
2018-03-09T08:16:31.281Z,6.20
2018-03-09T08:17:35.771Z,6.10
2018-03-09T08:18:42.307Z,5.80
2018-03-09T08:19:46.777Z,6.00
2018-03-09T08:20:52.307Z,6.00
2018-03-09T08:21:58.813Z,6.10
2018-03-09T08:23:03.318Z,5.90
2018-03-09T08:24:09.830Z,5.60
2018-03-09T08:25:14.338Z,5.80
2018-03-09T08:26:19.841Z,5.50
2018-03-09T08:27:26.359Z,5.40
2018-03-09T08:28:30.851Z,5.70
2018-03-09T08:29:37.373Z,5.90
2018-03-09T08:30:41.880Z,5.50
2018-03-09T08:31:47.397Z,5.50
2018-03-09T08:32:53.900Z,5.40
2018-03-09T08:33:58.405Z,5.80
2018-03-09T08:35:04.931Z,5.70
2018-03-09T08:36:09.436Z,5.60
2018-03-09T08:37:14.924Z,5.60
2018-03-09T08:38:21.462Z,5.70
2018-03-09T08:39:25.961Z,5.70
2018-03-09T08:40:32.468Z,5.40
2018-03-09T08:41:36.975Z,5.50
2018-03-09T08:42:42.494Z,5.10
2018-03-09T08:43:49.021Z,6.00
2018-03-09T08:44:53.505Z,5.70
2018-03-09T08:46:00.022Z,6.20
2018-03-09T08:47:04.592Z,5.70
2018-03-09T08:48:10.035Z,5.70
2018-03-09T08:49:16.563Z,5.10
2018-03-09T08:50:21.049Z,4.80
2018-03-09T08:51:27.581Z,4.60
2018-03-09T08:52:32.078Z,4.90
2018-03-09T08:53:37.586Z,4.60
2018-03-09T08:54:44.122Z,4.60
2018-03-09T08:55:48.604Z,4.70
2018-03-09T08:56:55.124Z,4.80
2018-03-09T08:57:59.624Z,4.30
2018-03-09T08:59:05.135Z,4.20
2018-03-09T09:00:11.666Z,4.70
2018-03-09T09:01:16.150Z,4.20
2018-03-09T09:02:22.673Z,4.20
2018-03-09T09:03:27.175Z,4.60
2018-03-09T09:04:32.678Z,4.40
2018-03-09T09:05:39.218Z,4.80
2018-03-09T09:06:43.705Z,4.80
2018-03-09T09:07:50.250Z,4.60
2018-03-09T09:08:54.740Z,4.70
2018-03-09T09:10:00.232Z,4.50
2018-03-09T09:11:06.749Z,4.10
2018-03-09T09:12:11.247Z,4.30
2018-03-09T09:13:17.775Z,4.80
2018-03-09T09:14:22.279Z,4.80
2018-03-09T09:15:27.783Z,5.00
2018-03-09T09:16:34.306Z,4.60
2018-03-09T09:17:38.808Z,4.60
2018-03-09T09:18:45.325Z,4.40
2018-03-09T09:19:49.821Z,4.70
2018-03-09T09:20:55.344Z,4.70
2018-03-09T09:22:01.877Z,4.60
2018-03-09T09:23:06.358Z,4.90
2018-03-09T09:24:12.956Z,4.60
2018-03-09T09:25:17.375Z,5.10
2018-03-09T09:26:22.924Z,5.00
2018-03-09T09:27:29.451Z,5.00
2018-03-09T09:28:33.902Z,5.00
2018-03-09T09:29:40.438Z,4.80
2018-03-09T09:30:44.931Z,5.00
2018-03-09T09:31:50.453Z,5.30
2018-03-09T09:32:56.948Z,5.40
2018-03-09T09:34:01.452Z,4.80
2018-03-09T09:35:08.018Z,5.10
2018-03-09T09:36:12.468Z,5.20
2018-03-09T09:37:18.010Z,6.00
2018-03-09T09:38:24.536Z,5.50
2018-03-09T09:39:29.022Z,5.40
2018-03-09T09:40:35.546Z,5.10
2018-03-09T09:41:40.044Z,5.20
2018-03-09T09:42:45.551Z,5.40
2018-03-09T09:43:52.070Z,5.50
2018-03-09T09:44:56.554Z,5.60
2018-03-09T09:46:03.096Z,4.70
2018-03-09T09:47:07.582Z,5.00
2018-03-09T09:48:13.107Z,4.90
2018-03-09T09:49:19.618Z,5.40
2018-03-09T09:50:24.141Z,5.00
2018-03-09T09:51:30.635Z,4.70
2018-03-09T09:52:35.150Z,5.10
2018-03-09T09:53:40.647Z,5.50
2018-03-09T09:54:47.177Z,5.30
2018-03-09T09:55:51.678Z,5.20
2018-03-09T09:56:58.196Z,5.40
2018-03-09T09:58:02.687Z,5.10
2018-03-09T09:59:08.208Z,5.30
2018-03-09T10:00:14.731Z,5.20
2018-03-09T10:01:19.236Z,5.00
2018-03-09T10:02:25.750Z,4.70
2018-03-09T10:03:30.253Z,5.30
2018-03-09T10:04:35.759Z,5.10
2018-03-09T10:05:42.271Z,4.70
2018-03-09T10:06:46.774Z,5.00
2018-03-09T10:07:53.296Z,5.10
2018-03-09T10:08:57.816Z,5.30
2018-03-09T10:10:03.330Z,5.10
2018-03-09T10:11:09.872Z,5.10
2018-03-09T10:12:14.353Z,4.90
2018-03-09T10:13:20.867Z,5.10
2018-03-09T10:14:25.344Z,5.10
2018-03-09T10:15:30.860Z,5.00
2018-03-09T10:16:37.381Z,4.90
2018-03-09T10:17:41.884Z,5.30
2018-03-09T10:18:48.406Z,5.10
2018-03-09T10:19:52.914Z,5.10
2018-03-09T10:20:58.421Z,4.80
2018-03-09T10:22:04.952Z,4.70
2018-03-09T10:23:09.448Z,4.50
2018-03-09T10:24:15.970Z,5.60
2018-03-09T10:25:20.464Z,5.20
2018-03-09T10:26:25.972Z,5.40
2018-03-09T10:27:32.502Z,4.80
2018-03-09T10:28:37.005Z,5.20
2018-03-09T10:29:43.526Z,5.10
2018-03-09T10:30:48.018Z,4.60
2018-03-09T10:31:53.535Z,4.40
2018-03-09T10:33:00.043Z,4.30
2018-03-09T10:34:04.567Z,4.90
2018-03-09T10:35:11.073Z,4.80
2018-03-09T10:36:15.711Z,4.80
2018-03-09T10:37:21.086Z,4.10
2018-03-09T10:38:27.633Z,4.50
2018-03-09T10:39:32.122Z,4.80
2018-03-09T10:40:38.634Z,4.20
2018-03-09T10:41:43.131Z,5.00
2018-03-09T10:42:48.647Z,4.60
2018-03-09T10:43:55.181Z,5.10
2018-03-09T10:44:59.669Z,5.00
2018-03-09T10:46:06.201Z,4.80
2018-03-09T10:47:10.704Z,4.60
2018-03-09T10:48:16.214Z,3.90
2018-03-09T10:49:22.744Z,4.40
2018-03-09T10:50:27.236Z,4.50
2018-03-09T10:51:33.830Z,4.30
2018-03-09T10:52:38.257Z,4.70
2018-03-09T10:53:43.761Z,4.40
2018-03-09T10:54:50.277Z,4.20
2018-03-09T10:55:54.794Z,4.40
2018-03-09T10:57:01.322Z,4.50
2018-03-09T10:58:05.815Z,4.70
2018-03-09T10:59:11.320Z,4.60
2018-03-09T11:00:17.921Z,4.60
2018-03-09T11:01:22.343Z,4.10
2018-03-09T11:02:28.884Z,4.40
2018-03-09T11:03:33.395Z,4.40
2018-03-09T11:04:38.886Z,4.40
2018-03-09T11:05:45.420Z,4.20
2018-03-09T11:06:49.916Z,4.30
2018-03-09T11:07:56.438Z,4.30
2018-03-09T11:09:00.935Z,4.10
2018-03-09T11:10:06.442Z,4.50
2018-03-09T11:11:12.966Z,4.40
2018-03-09T11:12:17.463Z,5.00
2018-03-09T11:13:23.988Z,3.90
2018-03-09T11:14:28.495Z,4.20
2018-03-09T11:15:34.002Z,4.00
2018-03-09T11:16:40.533Z,4.60
2018-03-09T11:17:45.105Z,4.00
2018-03-09T11:18:51.566Z,4.40
2018-03-09T11:19:56.062Z,4.20
2018-03-09T11:21:01.583Z,4.70
2018-03-09T11:22:08.087Z,4.70
2018-03-09T11:23:12.599Z,4.90
2018-03-09T11:24:19.128Z,4.50
2018-03-09T11:25:23.636Z,4.30
2018-03-09T11:26:29.142Z,4.50
2018-03-09T11:27:35.654Z,4.00
2018-03-09T11:28:40.151Z,3.90
2018-03-09T11:29:46.678Z,4.30
2018-03-09T11:30:51.171Z,3.80
2018-03-09T11:31:56.703Z,4.30
2018-03-09T11:33:03.226Z,4.10
2018-03-09T11:34:07.742Z,4.70
2018-03-09T11:35:14.243Z,4.40
2018-03-09T11:36:18.757Z,4.30
2018-03-09T11:37:24.255Z,4.30
2018-03-09T11:38:30.774Z,4.20
2018-03-09T11:39:35.274Z,4.50
2018-03-09T11:40:41.811Z,4.40
2018-03-09T11:41:46.299Z,4.40
2018-03-09T11:42:51.831Z,4.30
2018-03-09T11:43:58.343Z,4.20
2018-03-09T11:45:02.840Z,4.30
2018-03-09T11:46:09.383Z,4.30
2018-03-09T11:47:13.864Z,4.00
2018-03-09T11:48:19.427Z,3.90
2018-03-09T11:49:25.911Z,4.40
2018-03-09T11:50:30.415Z,4.40
2018-03-09T11:51:36.939Z,4.10
2018-03-09T11:52:41.438Z,4.30
2018-03-09T11:53:46.975Z,4.50
2018-03-09T11:54:53.486Z,4.20
2018-03-09T11:55:57.976Z,4.30
2018-03-09T11:57:04.519Z,4.10
2018-03-09T11:58:09.003Z,4.20
2018-03-09T11:59:14.609Z,4.30
2018-03-09T12:00:21.032Z,4.40
2018-03-09T12:01:25.535Z,4.50
2018-03-09T12:02:32.079Z,4.60
2018-03-09T12:03:36.657Z,4.60
2018-03-09T12:04:42.100Z,5.00
2018-03-09T12:05:48.619Z,4.80
2018-03-09T12:06:53.109Z,5.20
2018-03-09T12:07:59.639Z,4.90
2018-03-09T12:09:04.136Z,4.70
2018-03-09T12:10:09.644Z,4.70
2018-03-09T12:11:16.182Z,4.40
2018-03-09T12:12:20.669Z,4.60
2018-03-09T12:13:27.208Z,5.00
2018-03-09T12:14:31.703Z,5.10
2018-03-09T12:15:37.220Z,6.10
2018-03-09T12:16:43.757Z,4.60
2018-03-09T12:17:48.258Z,4.80
2018-03-09T12:18:54.759Z,5.70
2018-03-09T12:19:59.281Z,5.30
2018-03-09T12:21:04.785Z,5.30
2018-03-09T12:22:11.307Z,5.10
2018-03-09T12:23:15.810Z,5.10
2018-03-09T12:24:22.328Z,5.50
2018-03-09T12:25:26.828Z,5.50
2018-03-09T12:26:32.401Z,5.60
2018-03-09T12:27:38.881Z,5.20
2018-03-09T12:28:43.380Z,4.30
2018-03-09T12:29:49.914Z,4.20
2018-03-09T12:30:54.413Z,4.00
2018-03-09T12:31:59.915Z,4.70
2018-03-09T12:33:06.438Z,4.40
2018-03-09T12:34:10.956Z,4.30
2018-03-09T12:35:17.474Z,4.50
2018-03-09T12:36:21.969Z,4.40
2018-03-09T12:37:27.492Z,4.30
2018-03-09T12:38:34.027Z,4.60
2018-03-09T12:39:38.541Z,4.60
2018-03-09T12:40:45.050Z,4.10
2018-03-09T12:41:49.559Z,4.60
2018-03-09T12:42:55.059Z,4.80
2018-03-09T12:44:01.578Z,4.60
2018-03-09T12:45:06.087Z,4.30
2018-03-09T12:46:12.666Z,3.90
2018-03-09T12:47:17.110Z,4.20
2018-03-09T12:48:22.617Z,3.80
2018-03-09T12:49:29.138Z,3.60
2018-03-09T12:50:33.677Z,3.80
2018-03-09T12:51:40.176Z,3.40
2018-03-09T12:52:44.698Z,3.70
2018-03-09T12:53:50.197Z,3.60
2018-03-09T12:54:56.710Z,3.70
2018-03-09T12:56:01.226Z,3.60
2018-03-09T12:57:07.761Z,3.90
2018-03-09T12:58:12.251Z,3.80
2018-03-09T12:59:17.772Z,3.50
2018-03-09T13:00:24.300Z,3.30
2018-03-09T13:01:28.805Z,3.40
2018-03-09T13:02:35.369Z,3.50
2018-03-09T13:03:39.840Z,3.50
2018-03-09T13:04:45.344Z,3.40
2018-03-09T13:05:51.879Z,3.60
2018-03-09T13:06:56.404Z,3.50
2018-03-09T13:08:02.901Z,3.60
2018-03-09T13:09:07.411Z,3.80
2018-03-09T13:10:12.952Z,3.90
2018-03-09T13:11:19.484Z,3.70
2018-03-09T13:12:23.967Z,3.60
2018-03-09T13:13:30.519Z,3.20
2018-03-09T13:14:35.016Z,3.40
2018-03-09T13:15:40.539Z,3.50
2018-03-09T13:16:47.059Z,3.40
2018-03-09T13:17:51.548Z,3.60
2018-03-09T13:18:58.096Z,3.60
2018-03-09T13:20:02.588Z,3.60
2018-03-09T13:21:08.106Z,3.40
2018-03-09T13:22:14.636Z,3.70
2018-03-09T13:23:19.137Z,3.50
2018-03-09T13:24:25.675Z,3.60
2018-03-09T13:25:30.198Z,3.90
2018-03-09T13:26:35.694Z,3.60
2018-03-09T13:27:42.229Z,3.30
2018-03-09T13:28:46.734Z,3.50
2018-03-09T13:29:53.262Z,4.20
2018-03-09T13:30:57.752Z,4.00
2018-03-09T13:32:03.285Z,3.40
2018-03-09T13:33:09.808Z,3.40
2018-03-09T13:34:14.324Z,3.40
2018-03-09T13:35:20.852Z,3.20
2018-03-09T13:36:25.380Z,3.40
2018-03-09T13:37:30.882Z,3.30
2018-03-09T13:38:37.394Z,3.40
2018-03-09T13:39:41.925Z,3.30
2018-03-09T13:40:48.478Z,12.00
2018-03-09T13:41:52.963Z,5.40
2018-03-09T13:42:58.492Z,3.50
2018-03-09T13:44:05.009Z,3.70
2018-03-09T13:45:09.518Z,4.30
2018-03-09T13:46:16.041Z,4.40
2018-03-09T13:47:20.607Z,4.20
2018-03-09T13:48:26.075Z,4.40
2018-03-09T13:49:32.608Z,4.20
2018-03-09T13:50:37.115Z,4.20
2018-03-09T13:51:43.664Z,4.60
2018-03-09T13:52:48.149Z,4.70
2018-03-09T13:53:53.668Z,4.30
2018-03-09T13:55:00.194Z,4.60
2018-03-09T13:56:04.705Z,4.40
2018-03-09T13:57:11.237Z,4.10
2018-03-09T13:58:15.738Z,4.20
2018-03-09T13:59:21.266Z,4.40
2018-03-09T14:00:27.783Z,4.50
2018-03-09T14:01:32.304Z,4.90
2018-03-09T14:02:38.827Z,4.70
2018-03-09T14:03:43.333Z,4.80
2018-03-09T14:04:48.847Z,5.30
2018-03-09T14:05:55.364Z,5.30
2018-03-09T14:06:59.881Z,5.10
2018-03-09T14:08:06.437Z,5.10
2018-03-09T14:09:10.904Z,5.30
2018-03-09T14:10:16.429Z,5.40
2018-03-09T14:11:22.959Z,5.10
2018-03-09T14:12:27.452Z,5.00
2018-03-09T14:13:33.990Z,5.60
2018-03-09T14:14:38.494Z,4.60
2018-03-09T14:15:44.000Z,5.80
2018-03-09T14:16:50.555Z,5.40
2018-03-09T14:17:55.101Z,5.10
2018-03-09T14:19:01.574Z,4.50
2018-03-09T14:20:06.066Z,4.70
2018-03-09T14:21:11.593Z,4.50
2018-03-09T14:22:18.133Z,4.70
2018-03-09T14:23:22.628Z,4.70
2018-03-09T14:24:29.138Z,4.60
2018-03-09T14:25:33.653Z,4.50
2018-03-09T14:26:39.172Z,4.40
2018-03-09T14:27:45.703Z,4.30
2018-03-09T14:28:50.206Z,4.30
2018-03-09T14:29:56.751Z,4.10
2018-03-09T14:31:01.262Z,4.40
2018-03-09T14:32:06.732Z,3.80